sensor_id;sensor_type;location;lat;lon;timestamp;P1;durP1;ratioP1;P2;durP2;ratioP2
73675;SDS011;61975;48.660;10.164;2022-10-29T00:01:14;8.20;;;3.90;;
73675;SDS011;61975;48.660;10.164;2022-10-29T00:03:40;7.97;;;4.00;;
73675;SDS011;61975;48.660;10.164;2022-10-29T00:06:06;11.80;;;3.97;;
73675;SDS011;61975;48.660;10.164;2022-10-29T00:08:35;10.25;;;3.90;;
73675;SDS011;61975;48.660;10.164;2022-10-29T00:13:45;7.60;;;3.65;;
73675;SDS011;61975;48.660;10.164;2022-10-29T00:16:16;7.85;;;3.75;;
73675;SDS011;61975;48.660;10.164;2022-10-29T00:18:43;6.60;;;3.43;;
73675;SDS011;61975;48.660;10.164;2022-10-29T00:21:10;7.88;;;3.63;;
73675;SDS011;61975;48.660;10.164;2022-10-29T00:23:40;6.25;;;3.00;;
73675;SDS011;61975;48.660;10.164;2022-10-29T00:26:06;9.07;;;3.27;;
73675;SDS011;61975;48.660;10.164;2022-10-29T00:28:32;8.65;;;3.70;;
73675;SDS011;61975;48.660;10.164;2022-10-29T00:31:01;6.15;;;3.45;;
73675;SDS011;61975;48.660;10.164;2022-10-29T00:33:30;8.10;;;3.70;;
73675;SDS011;61975;48.660;10.164;2022-10-29T00:35:57;7.82;;;3.95;;
73675;SDS011;61975;48.660;10.164;2022-10-29T00:38:27;6.30;;;3.50;;
73675;SDS011;61975;48.660;10.164;2022-10-29T00:40:54;8.82;;;3.55;;
73675;SDS011;61975;48.660;10.164;2022-10-29T00:43:21;7.77;;;3.47;;
73675;SDS011;61975;48.660;10.164;2022-10-29T00:46:02;6.05;;;3.47;;
73675;SDS011;61975;48.660;10.164;2022-10-29T00:48:32;8.90;;;3.60;;
73675;SDS011;61975;48.660;10.164;2022-10-29T00:51:01;8.57;;;3.80;;
73675;SDS011;61975;48.660;10.164;2022-10-29T00:53:29;6.57;;;3.60;;
73675;SDS011;61975;48.660;10.164;2022-10-29T00:56:00;8.75;;;3.83;;
73675;SDS011;61975;48.660;10.164;2022-10-29T00:58:26;9.55;;;3.60;;
73675;SDS011;61975;48.660;10.164;2022-10-29T01:00:52;8.85;;;3.72;;
73675;SDS011;61975;48.660;10.164;2022-10-29T01:03:18;9.50;;;3.92;;
73675;SDS011;61975;48.660;10.164;2022-10-29T01:05:44;6.93;;;3.40;;
73675;SDS011;61975;48.660;10.164;2022-10-29T01:08:10;8.18;;;3.40;;
73675;SDS011;61975;48.660;10.164;2022-10-29T01:27:15;6.90;;;3.60;;
73675;SDS011;61975;48.660;10.164;2022-10-29T01:38:23;7.13;;;3.60;;
73675;SDS011;61975;48.660;10.164;2022-10-29T01:43:38;7.90;;;3.97;;
73675;SDS011;61975;48.660;10.164;2022-10-29T01:46:27;10.03;;;3.83;;
73675;SDS011;61975;48.660;10.164;2022-10-29T01:49:01;7.15;;;3.65;;
73675;SDS011;61975;48.660;10.164;2022-10-29T01:51:31;9.70;;;3.53;;
73675;SDS011;61975;48.660;10.164;2022-10-29T01:53:59;8.35;;;3.50;;
73675;SDS011;61975;48.660;10.164;2022-10-29T01:56:30;7.25;;;3.30;;
73675;SDS011;61975;48.660;10.164;2022-10-29T01:58:56;7.57;;;3.87;;
73675;SDS011;61975;48.660;10.164;2022-10-29T02:01:35;6.82;;;3.22;;
73675;SDS011;61975;48.660;10.164;2022-10-29T02:17:33;8.55;;;3.50;;
73675;SDS011;61975;48.660;10.164;2022-10-29T02:20:05;6.93;;;3.17;;
73675;SDS011;61975;48.660;10.164;2022-10-29T02:22:33;9.18;;;3.70;;
73675;SDS011;61975;48.660;10.164;2022-10-29T02:24:59;7.28;;;3.75;;
73675;SDS011;61975;48.660;10.164;2022-10-29T02:27:25;7.32;;;2.97;;
73675;SDS011;61975;48.660;10.164;2022-10-29T02:29:51;7.63;;;3.22;;
73675;SDS011;61975;48.660;10.164;2022-10-29T02:32:16;5.83;;;3.13;;
73675;SDS011;61975;48.660;10.164;2022-10-29T02:34:42;7.83;;;3.37;;
73675;SDS011;61975;48.660;10.164;2022-10-29T02:37:07;7.67;;;2.87;;
73675;SDS011;61975;48.660;10.164;2022-10-29T02:39:32;6.77;;;3.27;;
73675;SDS011;61975;48.660;10.164;2022-10-29T02:41:58;6.63;;;3.35;;
73675;SDS011;61975;48.660;10.164;2022-10-29T02:44:23;5.70;;;3.10;;
73675;SDS011;61975;48.660;10.164;2022-10-29T02:46:49;6.23;;;3.20;;
73675;SDS011;61975;48.660;10.164;2022-10-29T02:49:14;5.90;;;3.17;;
73675;SDS011;61975;48.660;10.164;2022-10-29T02:51:40;6.88;;;3.08;;
73675;SDS011;61975;48.660;10.164;2022-10-29T02:54:05;7.50;;;3.30;;
73675;SDS011;61975;48.660;10.164;2022-10-29T02:56:31;6.17;;;3.20;;
73675;SDS011;61975;48.660;10.164;2022-10-29T02:58:56;7.13;;;3.40;;
73675;SDS011;61975;48.660;10.164;2022-10-29T03:01:21;6.33;;;2.97;;
73675;SDS011;61975;48.660;10.164;2022-10-29T03:03:47;7.13;;;3.10;;
73675;SDS011;61975;48.660;10.164;2022-10-29T03:06:13;6.53;;;3.05;;
73675;SDS011;61975;48.660;10.164;2022-10-29T03:08:39;8.52;;;3.80;;
73675;SDS011;61975;48.660;10.164;2022-10-29T03:11:05;6.53;;;3.15;;
73675;SDS011;61975;48.660;10.164;2022-10-29T03:13:30;6.33;;;3.17;;
73675;SDS011;61975;48.660;10.164;2022-10-29T03:15:55;5.63;;;3.10;;
73675;SDS011;61975;48.660;10.164;2022-10-29T03:18:21;7.40;;;3.47;;
73675;SDS011;61975;48.660;10.164;2022-10-29T03:20:46;6.10;;;3.20;;
73675;SDS011;61975;48.660;10.164;2022-10-29T03:23:12;7.85;;;3.13;;
73675;SDS011;61975;48.660;10.164;2022-10-29T03:25:37;9.50;;;3.08;;
73675;SDS011;61975;48.660;10.164;2022-10-29T03:28:03;6.00;;;3.17;;
73675;SDS011;61975;48.660;10.164;2022-10-29T03:30:28;7.57;;;3.40;;
73675;SDS011;61975;48.660;10.164;2022-10-29T03:32:54;8.35;;;3.17;;
73675;SDS011;61975;48.660;10.164;2022-10-29T03:35:19;8.10;;;3.07;;
73675;SDS011;61975;48.660;10.164;2022-10-29T03:37:47;5.63;;;2.90;;
73675;SDS011;61975;48.660;10.164;2022-10-29T03:40:13;6.85;;;3.13;;
73675;SDS011;61975;48.660;10.164;2022-10-29T03:42:39;5.70;;;3.00;;
73675;SDS011;61975;48.660;10.164;2022-10-29T03:45:05;8.10;;;3.20;;
73675;SDS011;61975;48.660;10.164;2022-10-29T03:47:31;5.22;;;2.78;;
73675;SDS011;61975;48.660;10.164;2022-10-29T03:49:57;6.70;;;3.13;;
73675;SDS011;61975;48.660;10.164;2022-10-29T03:52:22;5.63;;;2.90;;
73675;SDS011;61975;48.660;10.164;2022-10-29T03:54:48;6.50;;;3.40;;
73675;SDS011;61975;48.660;10.164;2022-10-29T03:57:13;6.37;;;3.10;;
73675;SDS011;61975;48.660;10.164;2022-10-29T03:59:38;7.13;;;3.40;;
73675;SDS011;61975;48.660;10.164;2022-10-29T04:02:04;7.97;;;3.20;;
73675;SDS011;61975;48.660;10.164;2022-10-29T04:04:30;8.27;;;3.30;;
73675;SDS011;61975;48.660;10.164;2022-10-29T04:06:55;7.13;;;3.30;;
73675;SDS011;61975;48.660;10.164;2022-10-29T04:09:20;5.82;;;2.95;;
73675;SDS011;61975;48.660;10.164;2022-10-29T04:11:46;7.55;;;3.20;;
73675;SDS011;61975;48.660;10.164;2022-10-29T04:14:11;6.00;;;3.17;;
73675;SDS011;61975;48.660;10.164;2022-10-29T04:16:37;6.33;;;3.00;;
73675;SDS011;61975;48.660;10.164;2022-10-29T04:19:02;6.97;;;3.10;;
73675;SDS011;61975;48.660;10.164;2022-10-29T04:21:28;6.57;;;3.15;;
73675;SDS011;61975;48.660;10.164;2022-10-29T04:23:53;7.97;;;3.00;;
73675;SDS011;61975;48.660;10.164;2022-10-29T04:26:19;6.07;;;3.20;;
73675;SDS011;61975;48.660;10.164;2022-10-29T04:28:47;6.40;;;3.13;;
73675;SDS011;61975;48.660;10.164;2022-10-29T04:31:13;7.57;;;3.30;;
73675;SDS011;61975;48.660;10.164;2022-10-29T04:33:38;6.15;;;2.95;;
73675;SDS011;61975;48.660;10.164;2022-10-29T04:36:04;7.83;;;2.90;;
73675;SDS011;61975;48.660;10.164;2022-10-29T04:38:30;6.40;;;3.30;;
73675;SDS011;61975;48.660;10.164;2022-10-29T04:40:56;8.30;;;3.77;;
73675;SDS011;61975;48.660;10.164;2022-10-29T04:43:23;7.35;;;3.90;;
73675;SDS011;61975;48.660;10.164;2022-10-29T04:45:52;8.93;;;4.00;;
73675;SDS011;61975;48.660;10.164;2022-10-29T04:48:18;8.82;;;3.95;;
73675;SDS011;61975;48.660;10.164;2022-10-29T04:50:45;7.60;;;3.25;;
73675;SDS011;61975;48.660;10.164;2022-10-29T04:53:10;6.60;;;3.07;;
73675;SDS011;61975;48.660;10.164;2022-10-29T04:55:36;7.13;;;3.00;;
73675;SDS011;61975;48.660;10.164;2022-10-29T04:58:06;5.63;;;3.10;;
73675;SDS011;61975;48.660;10.164;2022-10-29T05:00:32;6.28;;;2.92;;
73675;SDS011;61975;48.660;10.164;2022-10-29T05:02:58;7.20;;;3.20;;
73675;SDS011;61975;48.660;10.164;2022-10-29T05:05:23;8.52;;;3.60;;
73675;SDS011;61975;48.660;10.164;2022-10-29T05:07:54;6.00;;;3.00;;
73675;SDS011;61975;48.660;10.164;2022-10-29T05:10:20;6.35;;;3.22;;
73675;SDS011;61975;48.660;10.164;2022-10-29T05:12:46;6.57;;;2.93;;
73675;SDS011;61975;48.660;10.164;2022-10-29T05:15:11;8.40;;;3.17;;
73675;SDS011;61975;48.660;10.164;2022-10-29T05:17:37;9.40;;;3.10;;
73675;SDS011;61975;48.660;10.164;2022-10-29T05:20:03;6.13;;;2.92;;
73675;SDS011;61975;48.660;10.164;2022-10-29T05:22:28;6.82;;;3.35;;
73675;SDS011;61975;48.660;10.164;2022-10-29T05:24:54;6.63;;;3.38;;
73675;SDS011;61975;48.660;10.164;2022-10-29T05:27:19;7.47;;;3.37;;
73675;SDS011;61975;48.660;10.164;2022-10-29T05:29:44;7.50;;;3.10;;
73675;SDS011;61975;48.660;10.164;2022-10-29T05:32:10;6.27;;;3.20;;
73675;SDS011;61975;48.660;10.164;2022-10-29T05:34:35;7.27;;;3.17;;
73675;SDS011;61975;48.660;10.164;2022-10-29T05:37:00;7.17;;;3.20;;
73675;SDS011;61975;48.660;10.164;2022-10-29T05:39:26;7.23;;;3.70;;
73675;SDS011;61975;48.660;10.164;2022-10-29T05:41:51;6.47;;;3.20;;
73675;SDS011;61975;48.660;10.164;2022-10-29T05:44:16;6.35;;;3.03;;
73675;SDS011;61975;48.660;10.164;2022-10-29T05:46:42;6.70;;;3.20;;
73675;SDS011;61975;48.660;10.164;2022-10-29T05:49:07;7.27;;;2.80;;
73675;SDS011;61975;48.660;10.164;2022-10-29T05:51:33;5.60;;;2.80;;
73675;SDS011;61975;48.660;10.164;2022-10-29T05:53:58;6.03;;;2.80;;
73675;SDS011;61975;48.660;10.164;2022-10-29T05:56:23;8.47;;;3.00;;
73675;SDS011;61975;48.660;10.164;2022-10-29T05:58:49;7.72;;;3.38;;
73675;SDS011;61975;48.660;10.164;2022-10-29T06:01:16;9.03;;;4.17;;
73675;SDS011;61975;48.660;10.164;2022-10-29T06:03:43;8.55;;;4.13;;
73675;SDS011;61975;48.660;10.164;2022-10-29T06:06:10;8.60;;;3.90;;
73675;SDS011;61975;48.660;10.164;2022-10-29T06:08:35;6.77;;;3.50;;
73675;SDS011;61975;48.660;10.164;2022-10-29T06:11:01;7.35;;;3.60;;
73675;SDS011;61975;48.660;10.164;2022-10-29T06:13:27;9.40;;;4.00;;
73675;SDS011;61975;48.660;10.164;2022-10-29T06:15:55;8.80;;;4.10;;
73675;SDS011;61975;48.660;10.164;2022-10-29T06:18:22;11.70;;;5.33;;
73675;SDS011;61975;48.660;10.164;2022-10-29T06:20:47;13.70;;;8.90;;
73675;SDS011;61975;48.660;10.164;2022-10-29T06:23:12;16.27;;;10.00;;
73675;SDS011;61975;48.660;10.164;2022-10-29T06:25:38;13.07;;;7.90;;
73675;SDS011;61975;48.660;10.164;2022-10-29T06:28:04;15.30;;;8.87;;
73675;SDS011;61975;48.660;10.164;2022-10-29T06:30:30;14.55;;;8.77;;
73675;SDS011;61975;48.660;10.164;2022-10-29T06:32:57;12.07;;;7.53;;
73675;SDS011;61975;48.660;10.164;2022-10-29T06:35:23;12.93;;;5.95;;
73675;SDS011;61975;48.660;10.164;2022-10-29T06:37:48;8.57;;;5.83;;
73675;SDS011;61975;48.660;10.164;2022-10-29T06:40:14;10.37;;;4.83;;
73675;SDS011;61975;48.660;10.164;2022-10-29T06:42:39;7.20;;;4.63;;
73675;SDS011;61975;48.660;10.164;2022-10-29T06:45:05;8.43;;;4.80;;
73675;SDS011;61975;48.660;10.164;2022-10-29T06:47:36;8.90;;;4.72;;
73675;SDS011;61975;48.660;10.164;2022-10-29T06:50:05;8.07;;;4.30;;
73675;SDS011;61975;48.660;10.164;2022-10-29T06:52:32;8.48;;;4.00;;
73675;SDS011;61975;48.660;10.164;2022-10-29T06:54:58;7.13;;;3.67;;
73675;SDS011;61975;48.660;10.164;2022-10-29T06:57:26;6.03;;;3.22;;
73675;SDS011;61975;48.660;10.164;2022-10-29T06:59:55;7.75;;;3.25;;
73675;SDS011;61975;48.660;10.164;2022-10-29T07:02:20;7.57;;;3.23;;
73675;SDS011;61975;48.660;10.164;2022-10-29T07:04:46;7.80;;;3.45;;
73675;SDS011;61975;48.660;10.164;2022-10-29T07:07:12;19.15;;;6.28;;
73675;SDS011;61975;48.660;10.164;2022-10-29T07:09:38;25.92;;;7.75;;
73675;SDS011;61975;48.660;10.164;2022-10-29T07:12:04;26.20;;;8.40;;
73675;SDS011;61975;48.660;10.164;2022-10-29T07:14:30;17.15;;;6.70;;
73675;SDS011;61975;48.660;10.164;2022-10-29T07:16:55;17.83;;;5.80;;
73675;SDS011;61975;48.660;10.164;2022-10-29T07:19:20;13.63;;;5.73;;
73675;SDS011;61975;48.660;10.164;2022-10-29T07:21:46;13.40;;;5.43;;
73675;SDS011;61975;48.660;10.164;2022-10-29T07:24:11;16.83;;;5.87;;
73675;SDS011;61975;48.660;10.164;2022-10-29T07:26:36;19.65;;;6.90;;
73675;SDS011;61975;48.660;10.164;2022-10-29T07:29:02;16.55;;;5.97;;
73675;SDS011;61975;48.660;10.164;2022-10-29T07:31:28;12.13;;;4.60;;
73675;SDS011;61975;48.660;10.164;2022-10-29T07:33:54;15.57;;;5.13;;
73675;SDS011;61975;48.660;10.164;2022-10-29T07:36:21;10.48;;;5.45;;
73675;SDS011;61975;48.660;10.164;2022-10-29T07:38:47;11.43;;;5.05;;
73675;SDS011;61975;48.660;10.164;2022-10-29T07:41:12;12.15;;;5.28;;
73675;SDS011;61975;48.660;10.164;2022-10-29T07:43:38;14.40;;;6.23;;
73675;SDS011;61975;48.660;10.164;2022-10-29T07:46:03;13.40;;;6.07;;
73675;SDS011;61975;48.660;10.164;2022-10-29T07:48:29;13.17;;;5.53;;
73675;SDS011;61975;48.660;10.164;2022-10-29T07:50:56;9.57;;;5.20;;
73675;SDS011;61975;48.660;10.164;2022-10-29T07:53:23;12.53;;;5.90;;
73675;SDS011;61975;48.660;10.164;2022-10-29T07:55:52;12.10;;;5.47;;
73675;SDS011;61975;48.660;10.164;2022-10-29T07:58:18;12.50;;;5.60;;
73675;SDS011;61975;48.660;10.164;2022-10-29T08:00:43;10.02;;;5.50;;
73675;SDS011;61975;48.660;10.164;2022-10-29T08:03:09;9.63;;;5.03;;
73675;SDS011;61975;48.660;10.164;2022-10-29T08:05:36;9.50;;;5.00;;
73675;SDS011;61975;48.660;10.164;2022-10-29T08:08:02;9.20;;;5.00;;
73675;SDS011;61975;48.660;10.164;2022-10-29T08:10:29;9.47;;;4.80;;
73675;SDS011;61975;48.660;10.164;2022-10-29T08:12:56;11.18;;;5.80;;
73675;SDS011;61975;48.660;10.164;2022-10-29T08:15:23;15.25;;;8.80;;
73675;SDS011;61975;48.660;10.164;2022-10-29T08:17:49;11.40;;;5.55;;
73675;SDS011;61975;48.660;10.164;2022-10-29T08:20:15;11.10;;;4.63;;
73675;SDS011;61975;48.660;10.164;2022-10-29T08:22:40;9.05;;;4.50;;
73675;SDS011;61975;48.660;10.164;2022-10-29T08:25:06;8.87;;;4.43;;
73675;SDS011;61975;48.660;10.164;2022-10-29T08:27:32;8.15;;;4.28;;
73675;SDS011;61975;48.660;10.164;2022-10-29T08:29:58;8.17;;;4.10;;
73675;SDS011;61975;48.660;10.164;2022-10-29T08:32:23;9.10;;;4.28;;
73675;SDS011;61975;48.660;10.164;2022-10-29T08:34:49;10.30;;;4.43;;
73675;SDS011;61975;48.660;10.164;2022-10-29T08:37:14;9.20;;;4.67;;
73675;SDS011;61975;48.660;10.164;2022-10-29T08:39:39;9.77;;;5.03;;
73675;SDS011;61975;48.660;10.164;2022-10-29T08:50:48;11.98;;;5.63;;
73675;SDS011;61975;48.660;10.164;2022-10-29T08:53:22;14.70;;;7.45;;
73675;SDS011;61975;48.660;10.164;2022-10-29T08:55:51;13.43;;;7.10;;
73675;SDS011;61975;48.660;10.164;2022-10-29T09:01:01;12.98;;;7.00;;
73675;SDS011;61975;48.660;10.164;2022-10-29T09:03:27;14.00;;;6.80;;
73675;SDS011;61975;48.660;10.164;2022-10-29T09:17:39;13.90;;;6.72;;
73675;SDS011;61975;48.660;10.164;2022-10-29T09:29:14;13.70;;;6.27;;
73675;SDS011;61975;48.660;10.164;2022-10-29T09:31:40;12.18;;;6.65;;
73675;SDS011;61975;48.660;10.164;2022-10-29T09:34:12;12.63;;;6.38;;
73675;SDS011;61975;48.660;10.164;2022-10-29T09:36:43;12.75;;;6.43;;
73675;SDS011;61975;48.660;10.164;2022-10-29T09:39:21;12.30;;;6.88;;
73675;SDS011;61975;48.660;10.164;2022-10-29T09:42:01;12.93;;;6.60;;
73675;SDS011;61975;48.660;10.164;2022-10-29T09:52:54;11.35;;;6.70;;
73675;SDS011;61975;48.660;10.164;2022-10-29T09:55:24;12.93;;;6.40;;
73675;SDS011;61975;48.660;10.164;2022-10-29T09:57:52;12.20;;;6.45;;
73675;SDS011;61975;48.660;10.164;2022-10-29T10:00:21;12.77;;;6.40;;
73675;SDS011;61975;48.660;10.164;2022-10-29T10:02:51;11.77;;;6.20;;
73675;SDS011;61975;48.660;10.164;2022-10-29T10:05:33;10.73;;;6.32;;
73675;SDS011;61975;48.660;10.164;2022-10-29T10:08:10;12.02;;;6.18;;
73675;SDS011;61975;48.660;10.164;2022-10-29T10:10:50;10.43;;;5.65;;
73675;SDS011;61975;48.660;10.164;2022-10-29T10:13:19;9.68;;;5.70;;
73675;SDS011;61975;48.660;10.164;2022-10-29T10:15:51;10.93;;;5.88;;
73675;SDS011;61975;48.660;10.164;2022-10-29T10:18:19;9.48;;;5.50;;
73675;SDS011;61975;48.660;10.164;2022-10-29T10:20:59;11.65;;;5.75;;
73675;SDS011;61975;48.660;10.164;2022-10-29T10:29:15;9.57;;;5.70;;
73675;SDS011;61975;48.660;10.164;2022-10-29T10:31:45;11.73;;;5.85;;
73675;SDS011;61975;48.660;10.164;2022-10-29T10:34:19;9.68;;;6.03;;
73675;SDS011;61975;48.660;10.164;2022-10-29T10:36:47;11.50;;;5.75;;
73675;SDS011;61975;48.660;10.164;2022-10-29T10:39:18;14.23;;;5.93;;
73675;SDS011;61975;48.660;10.164;2022-10-29T10:42:24;11.35;;;5.60;;
73675;SDS011;61975;48.660;10.164;2022-10-29T10:44:56;11.50;;;6.22;;
73675;SDS011;61975;48.660;10.164;2022-10-29T10:47:25;11.68;;;6.10;;
73675;SDS011;61975;48.660;10.164;2022-10-29T10:49:53;10.27;;;5.95;;
73675;SDS011;61975;48.660;10.164;2022-10-29T10:52:35;10.10;;;6.07;;
73675;SDS011;61975;48.660;10.164;2022-10-29T10:55:20;10.37;;;6.00;;
73675;SDS011;61975;48.660;10.164;2022-10-29T10:57:50;12.52;;;5.95;;
73675;SDS011;61975;48.660;10.164;2022-10-29T11:00:20;10.35;;;5.88;;
73675;SDS011;61975;48.660;10.164;2022-10-29T11:02:48;11.32;;;6.05;;
73675;SDS011;61975;48.660;10.164;2022-10-29T11:05:22;13.23;;;6.80;;
73675;SDS011;61975;48.660;10.164;2022-10-29T11:10:36;11.82;;;6.43;;
73675;SDS011;61975;48.660;10.164;2022-10-29T11:13:09;10.30;;;5.90;;
73675;SDS011;61975;48.660;10.164;2022-10-29T11:15:41;10.95;;;6.20;;
73675;SDS011;61975;48.660;10.164;2022-10-29T11:20:43;11.27;;;5.95;;
73675;SDS011;61975;48.660;10.164;2022-10-29T11:25:50;9.63;;;5.50;;
73675;SDS011;61975;48.660;10.164;2022-10-29T11:28:29;10.07;;;6.22;;
73675;SDS011;61975;48.660;10.164;2022-10-29T11:31:09;11.10;;;5.90;;
73675;SDS011;61975;48.660;10.164;2022-10-29T11:36:22;10.53;;;6.13;;
73675;SDS011;61975;48.660;10.164;2022-10-29T11:38:51;11.18;;;5.75;;
73675;SDS011;61975;48.660;10.164;2022-10-29T11:41:43;11.82;;;5.68;;
73675;SDS011;61975;48.660;10.164;2022-10-29T11:44:13;9.77;;;5.78;;
73675;SDS011;61975;48.660;10.164;2022-10-29T11:52:20;9.90;;;6.00;;
73675;SDS011;61975;48.660;10.164;2022-10-29T11:57:50;10.43;;;5.60;;
73675;SDS011;61975;48.660;10.164;2022-10-29T12:00:19;13.27;;;5.22;;
73675;SDS011;61975;48.660;10.164;2022-10-29T12:13:56;9.75;;;5.07;;
73675;SDS011;61975;48.660;10.164;2022-10-29T12:19:12;9.30;;;4.82;;
73675;SDS011;61975;48.660;10.164;2022-10-29T12:30:08;10.67;;;4.70;;
73675;SDS011;61975;48.660;10.164;2022-10-29T12:40:42;8.95;;;4.28;;
73675;SDS011;61975;48.660;10.164;2022-10-29T12:43:17;8.77;;;4.00;;
73675;SDS011;61975;48.660;10.164;2022-10-29T12:57:17;10.77;;;4.60;;
73675;SDS011;61975;48.660;10.164;2022-10-29T12:59:51;6.75;;;3.72;;
73675;SDS011;61975;48.660;10.164;2022-10-29T13:17:54;7.70;;;3.70;;
73675;SDS011;61975;48.660;10.164;2022-10-29T13:20:42;7.68;;;4.40;;
73675;SDS011;61975;48.660;10.164;2022-10-29T13:25:47;7.40;;;3.70;;
73675;SDS011;61975;48.660;10.164;2022-10-29T13:30:39;9.57;;;4.10;;
73675;SDS011;61975;48.660;10.164;2022-10-29T13:35:53;8.25;;;3.95;;
73675;SDS011;61975;48.660;10.164;2022-10-29T13:38:38;9.02;;;3.85;;
73675;SDS011;61975;48.660;10.164;2022-10-29T13:44:24;6.87;;;4.13;;
73675;SDS011;61975;48.660;10.164;2022-10-29T13:49:41;7.72;;;4.00;;
73675;SDS011;61975;48.660;10.164;2022-10-29T14:07:57;7.53;;;4.07;;
73675;SDS011;61975;48.660;10.164;2022-10-29T14:10:35;9.02;;;4.30;;
73675;SDS011;61975;48.660;10.164;2022-10-29T14:13:10;9.55;;;4.60;;
73675;SDS011;61975;48.660;10.164;2022-10-29T14:15:57;8.77;;;4.03;;
73675;SDS011;61975;48.660;10.164;2022-10-29T14:18:30;7.90;;;4.50;;
73675;SDS011;61975;48.660;10.164;2022-10-29T14:20:58;7.70;;;4.65;;
73675;SDS011;61975;48.660;10.164;2022-10-29T14:23:25;8.95;;;4.60;;
73675;SDS011;61975;48.660;10.164;2022-10-29T14:25:52;9.18;;;4.40;;
73675;SDS011;61975;48.660;10.164;2022-10-29T14:28:25;9.03;;;4.40;;
73675;SDS011;61975;48.660;10.164;2022-10-29T14:31:14;8.38;;;4.70;;
73675;SDS011;61975;48.660;10.164;2022-10-29T14:33:55;9.85;;;4.55;;
73675;SDS011;61975;48.660;10.164;2022-10-29T14:39:23;9.15;;;4.80;;
73675;SDS011;61975;48.660;10.164;2022-10-29T14:42:01;8.90;;;4.40;;
73675;SDS011;61975;48.660;10.164;2022-10-29T14:44:27;8.40;;;4.53;;
73675;SDS011;61975;48.660;10.164;2022-10-29T14:46:57;10.50;;;4.07;;
73675;SDS011;61975;48.660;10.164;2022-10-29T14:49:28;8.77;;;4.05;;
73675;SDS011;61975;48.660;10.164;2022-10-29T14:51:56;9.25;;;4.00;;
73675;SDS011;61975;48.660;10.164;2022-10-29T14:54:35;10.23;;;4.10;;
73675;SDS011;61975;48.660;10.164;2022-10-29T14:57:13;8.60;;;3.85;;
73675;SDS011;61975;48.660;10.164;2022-10-29T14:59:46;9.10;;;3.57;;
73675;SDS011;61975;48.660;10.164;2022-10-29T15:02:14;10.65;;;3.50;;
73675;SDS011;61975;48.660;10.164;2022-10-29T15:04:47;8.95;;;3.72;;
73675;SDS011;61975;48.660;10.164;2022-10-29T15:09:44;6.40;;;3.37;;
73675;SDS011;61975;48.660;10.164;2022-10-29T15:12:20;10.68;;;3.72;;
73675;SDS011;61975;48.660;10.164;2022-10-29T15:14:49;8.93;;;3.72;;
73675;SDS011;61975;48.660;10.164;2022-10-29T15:19:51;8.85;;;3.55;;
73675;SDS011;61975;48.660;10.164;2022-10-29T15:22:24;7.77;;;3.10;;
73675;SDS011;61975;48.660;10.164;2022-10-29T15:24:54;7.47;;;3.20;;
73675;SDS011;61975;48.660;10.164;2022-10-29T15:27:21;7.30;;;3.28;;
73675;SDS011;61975;48.660;10.164;2022-10-29T15:29:48;11.60;;;3.50;;
73675;SDS011;61975;48.660;10.164;2022-10-29T15:32:16;7.03;;;3.50;;
73675;SDS011;61975;48.660;10.164;2022-10-29T15:34:48;9.10;;;3.28;;
73675;SDS011;61975;48.660;10.164;2022-10-29T15:42:49;9.10;;;3.75;;
73675;SDS011;61975;48.660;10.164;2022-10-29T15:45:20;6.15;;;3.08;;
73675;SDS011;61975;48.660;10.164;2022-10-29T15:47:57;11.23;;;3.35;;
73675;SDS011;61975;48.660;10.164;2022-10-29T15:50:42;9.03;;;3.10;;
73675;SDS011;61975;48.660;10.164;2022-10-29T15:53:13;6.43;;;3.20;;
73675;SDS011;61975;48.660;10.164;2022-10-29T15:55:39;7.07;;;3.35;;
73675;SDS011;61975;48.660;10.164;2022-10-29T15:58:08;8.47;;;3.30;;
73675;SDS011;61975;48.660;10.164;2022-10-29T16:00:36;8.00;;;3.20;;
73675;SDS011;61975;48.660;10.164;2022-10-29T16:03:10;10.20;;;3.13;;
73675;SDS011;61975;48.660;10.164;2022-10-29T16:05:38;7.55;;;3.25;;
73675;SDS011;61975;48.660;10.164;2022-10-29T16:08:08;7.80;;;3.27;;
73675;SDS011;61975;48.660;10.164;2022-10-29T16:10:39;9.25;;;3.22;;
73675;SDS011;61975;48.660;10.164;2022-10-29T16:13:07;7.40;;;3.00;;
73675;SDS011;61975;48.660;10.164;2022-10-29T16:15:35;8.50;;;3.00;;
73675;SDS011;61975;48.660;10.164;2022-10-29T16:18:00;10.27;;;3.37;;
73675;SDS011;61975;48.660;10.164;2022-10-29T16:20:25;10.43;;;3.20;;
73675;SDS011;61975;48.660;10.164;2022-10-29T16:22:51;7.67;;;3.83;;
73675;SDS011;61975;48.660;10.164;2022-10-29T16:25:21;7.50;;;3.80;;
73675;SDS011;61975;48.660;10.164;2022-10-29T16:27:51;10.13;;;4.43;;
73675;SDS011;61975;48.660;10.164;2022-10-29T16:30:19;8.45;;;4.07;;
73675;SDS011;61975;48.660;10.164;2022-10-29T16:32:46;9.93;;;4.20;;
73675;SDS011;61975;48.660;10.164;2022-10-29T16:35:23;8.55;;;4.40;;
73675;SDS011;61975;48.660;10.164;2022-10-29T16:37:50;9.30;;;4.03;;
73675;SDS011;61975;48.660;10.164;2022-10-29T16:40:20;9.18;;;4.05;;
73675;SDS011;61975;48.660;10.164;2022-10-29T16:42:46;10.90;;;4.60;;
73675;SDS011;61975;48.660;10.164;2022-10-29T16:45:13;11.50;;;4.43;;
73675;SDS011;61975;48.660;10.164;2022-10-29T16:47:44;8.32;;;4.32;;
73675;SDS011;61975;48.660;10.164;2022-10-29T16:50:20;10.20;;;4.53;;
73675;SDS011;61975;48.660;10.164;2022-10-29T16:52:46;9.30;;;4.43;;
73675;SDS011;61975;48.660;10.164;2022-10-29T16:55:12;11.20;;;4.47;;
73675;SDS011;61975;48.660;10.164;2022-10-29T16:57:38;8.77;;;4.40;;
73675;SDS011;61975;48.660;10.164;2022-10-29T17:00:04;11.63;;;4.70;;
73675;SDS011;61975;48.660;10.164;2022-10-29T17:02:31;12.90;;;6.10;;
73675;SDS011;61975;48.660;10.164;2022-10-29T17:04:56;14.57;;;5.70;;
73675;SDS011;61975;48.660;10.164;2022-10-29T17:07:21;11.07;;;5.37;;
73675;SDS011;61975;48.660;10.164;2022-10-29T17:09:47;11.37;;;5.60;;
73675;SDS011;61975;48.660;10.164;2022-10-29T17:12:12;10.05;;;5.68;;
73675;SDS011;61975;48.660;10.164;2022-10-29T17:14:38;10.63;;;5.30;;
73675;SDS011;61975;48.660;10.164;2022-10-29T17:17:03;9.73;;;5.50;;
73675;SDS011;61975;48.660;10.164;2022-10-29T17:19:29;10.77;;;6.43;;
73675;SDS011;61975;48.660;10.164;2022-10-29T17:21:54;12.57;;;6.43;;
73675;SDS011;61975;48.660;10.164;2022-10-29T17:24:22;14.30;;;7.43;;
73675;SDS011;61975;48.660;10.164;2022-10-29T17:26:49;17.10;;;9.77;;
73675;SDS011;61975;48.660;10.164;2022-10-29T17:29:15;18.63;;;9.88;;
73675;SDS011;61975;48.660;10.164;2022-10-29T17:31:40;17.80;;;10.60;;
73675;SDS011;61975;48.660;10.164;2022-10-29T17:34:06;17.60;;;10.20;;
73675;SDS011;61975;48.660;10.164;2022-10-29T17:36:31;14.50;;;8.70;;
73675;SDS011;61975;48.660;10.164;2022-10-29T17:38:57;29.75;;;19.17;;
73675;SDS011;61975;48.660;10.164;2022-10-29T17:41:22;19.50;;;13.03;;
73675;SDS011;61975;48.660;10.164;2022-10-29T17:43:47;18.77;;;9.70;;
73675;SDS011;61975;48.660;10.164;2022-10-29T17:46:15;15.40;;;8.60;;
73675;SDS011;61975;48.660;10.164;2022-10-29T17:48:42;12.88;;;8.38;;
73675;SDS011;61975;48.660;10.164;2022-10-29T17:51:07;13.60;;;8.48;;
73675;SDS011;61975;48.660;10.164;2022-10-29T17:53:33;14.33;;;8.27;;
73675;SDS011;61975;48.660;10.164;2022-10-29T17:55:59;15.30;;;8.15;;
73675;SDS011;61975;48.660;10.164;2022-10-29T17:58:25;12.82;;;7.28;;
73675;SDS011;61975;48.660;10.164;2022-10-29T18:00:51;13.43;;;7.88;;
73675;SDS011;61975;48.660;10.164;2022-10-29T18:03:16;14.83;;;8.07;;
73675;SDS011;61975;48.660;10.164;2022-10-29T18:05:42;12.93;;;7.78;;